Time;durP1;ratioP1;P1;durP2;ratioP2;P2;SDS_P1;SDS_P2;PMS_P1;PMS_P2;Temp;Humidity;BMP_temperature;BMP_pressure;BME280_temperature;BME280_humidity;BME280_pressure;Samples;Min_cycle;Max_cycle;Signal;HPM_P1;HPM_P2
2023/03/01 00:01:13;;;;;;;;;;;;;;;;;;2209267;67;1718;-23
2023/03/01 00:03:43;;;;;;;;;;;;;;;;;;2207036;67;1423;-23
2023/03/01 00:06:13;;;;;;;;;;;;;;;;;;2206707;67;2104;-23
2023/03/01 00:08:44;;;;;;;;;;;;;;;;;;2210010;67;1677;-23
2023/03/01 00:11:24;;;;;;;;;;;;;;;;;;2209916;59;1246;-23
2023/03/01 00:13:55;;;;;;;;;;;;;;;;;;2209589;67;2099;-23
2023/03/01 00:16:27;;;;;;;;;;;;;;;;;;2209123;59;1526;-23
2023/03/01 00:18:57;;;;;;;;;;;;;;;;;;2209075;59;1932;-23
2023/03/01 00:21:28;;;;;;;;;;;;;;;;;;2208589;67;1518;-23
2023/03/01 00:23:58;;;;;;;;;;;;;;;;;;2208952;67;1305;-23
2023/03/01 00:26:28;;;;;;;;;;;;;;;;;;2209909;67;1198;-23
2023/03/01 00:28:59;;;;;;;;;;;;;;;;;;2209450;67;1676;-23
2023/03/01 00:31:31;;;;;;;;;;;;;;;;;;2209879;59;1672;-23
2023/03/01 00:34:04;;;;;;;;;;;;;;;;;;2209191;67;1297;-23
2023/03/01 00:36:36;;;;;;;;;;;;;;;;;;2209723;59;1329;-23
2023/03/01 00:39:10;;;;;;;;;;;;;;;;;;2209115;67;1931;-23
2023/03/01 00:41:40;;;;;;;;;;;;;;;;;;2209555;59;1785;-23
2023/03/01 00:44:10;;;;;;;;;;;;;;;;;;2209726;67;1831;-23
2023/03/01 00:46:41;;;;;;;;;;;;;;;;;;2208976;59;2119;-23
2023/03/01 00:49:11;;;;;;;;;;;;;;;;;;2209501;59;1684;-23
2023/03/01 00:51:41;;;;;;;;;;;;;;;;;;2209424;59;1746;-23
2023/03/01 00:54:11;;;;;;;;;;;;;;;;;;2209778;67;2019;-23
2023/03/01 00:56:42;;;;;;;;;;;;;;;;;;2209051;59;1710;-23
2023/03/01 00:59:12;;;;;;;;;;;;;;;;;;2208709;67;1992;-23
2023/03/01 01:01:42;;;;;;;;;;;;;;;;;;2209023;67;1270;-23
2023/03/01 01:04:15;;;;;;;;;;;;;;;;;;2209222;67;1568;-23
2023/03/01 01:06:46;;;;;;;;;;;;;;;;;;2209255;67;1237;-23
2023/03/01 01:09:17;;;;;;;;;;;;;;;;;;2205907;59;1298;-23
2023/03/01 01:11:49;;;;;;;;;;;;;;;;;;2206295;67;1972;-23
2023/03/01 01:14:19;;;;;;;;;;;;;;;;;;2209064;59;1957;-23
2023/03/01 01:16:49;;;;;;;;;;;;;;;;;;2209879;67;1857;-23
2023/03/01 01:19:19;;;;;;;;;;;;;;;;;;2209240;67;1928;-23
2023/03/01 01:21:49;;;;;;;;;;;;;;;;;;2210008;67;1197;-23
2023/03/01 01:24:20;;;;;;;;;;;;;;;;;;2206050;67;1191;-23
2023/03/01 01:26:50;;;;;;;;;;;;;;;;;;2209794;67;1202;-23
2023/03/01 01:29:20;;;;;;;;;;;;;;;;;;2209394;67;1361;-23
2023/03/01 01:31:50;;;;;;;;;;;;;;;;;;2208659;67;1544;-23
2023/03/01 01:34:21;;;;;;;;;;;;;;;;;;2207898;59;2025;-23
2023/03/01 01:36:55;;;;;;;;;;;;;;;;;;2207002;59;1693;-23
2023/03/01 01:39:25;;;;;;;;;;;;;;;;;;2205401;59;2357;-23
2023/03/01 01:41:55;;;;;;;;;;;;;;;;;;2208753;59;1888;-23
2023/03/01 01:44:27;;;;;;;;;;;;;;;;;;2207525;67;1321;-23
2023/03/01 01:47:01;;;;;;;;;;;;;;;;;;2208848;67;1238;-23
2023/03/01 01:49:35;;;;;;;;;;;;;;;;;;2207610;67;1986;-23
2023/03/01 01:52:09;;;;;;;;;;;;;;;;;;2208490;59;1461;-23
2023/03/01 01:54:42;;;;;;;;;;;;;;;;;;2209277;59;1408;-23
2023/03/01 01:57:16;;;;;;;;;;;;;;;;;;2209635;59;1616;-23
2023/03/01 01:59:48;;;;;;;;;;;;;;;;;;2210457;67;2015;-23
2023/03/01 02:02:19;;;;;;;;;;;;;;;;;;2208656;67;1151;-23
2023/03/01 02:04:52;;;;;;;;;;;;;;;;;;2209181;67;1675;-23
2023/03/01 02:07:23;;;;;;;;;;;;;;;;;;2209337;67;1216;-23
2023/03/01 02:09:53;;;;;;;;;;;;;;;;;;2209829;59;1312;-23
2023/03/01 02:12:24;;;;;;;;;;;;;;;;;;2208959;67;1738;-23
2023/03/01 02:14:57;;;;;;;;;;;;;;;;;;2209018;59;1253;-23
2023/03/01 02:17:27;;;;;;;;;;;;;;;;;;2208435;59;1724;-23
2023/03/01 02:20:14;;;;;;;;;;;;;;;;;;2209425;67;1938;-23
2023/03/01 02:22:46;;;;;;;;;;;;;;;;;;2209739;67;1184;-23
2023/03/01 02:25:19;;;;;;;;;;;;;;;;;;2209127;67;1131;-23
2023/03/01 02:27:53;;;;;;;;;;;;;;;;;;2208104;67;1506;-23
2023/03/01 02:30:24;;;;;;;;;;;;;;;;;;2211402;67;1150;-23
2023/03/01 02:33:02;;;;;;;;;;;;;;;;;;2210910;67;1312;-23
2023/03/01 02:35:35;;;;;;;;;;;;;;;;;;2209496;59;1850;-23
2023/03/01 02:38:07;;;;;;;;;;;;;;;;;;2209164;67;2002;-23
2023/03/01 02:40:39;;;;;;;;;;;;;;;;;;2208040;59;1457;-23
2023/03/01 02:43:10;;;;;;;;;;;;;;;;;;2208953;67;1696;-23
2023/03/01 02:45:43;;;;;;;;;;;;;;;;;;2209855;67;1162;-23
2023/03/01 02:48:13;;;;;;;;;;;;;;;;;;2205463;67;1711;-23
2023/03/01 02:50:43;;;;;;;;;;;;;;;;;;2209289;59;1276;-23
2023/03/01 02:53:22;;;;;;;;;;;;;;;;;;2209185;67;1912;-23
2023/03/01 02:55:52;;;;;;;;;;;;;;;;;;2209074;67;1504;-23
2023/03/01 02:58:23;;;;;;;;;;;;;;;;;;2209059;67;1976;-23
2023/03/01 03:00:53;;;;;;;;;;;;;;;;;;2208287;67;1242;-23
2023/03/01 03:03:23;;;;;;;;;;;;;;;;;;2208670;67;1980;-23
2023/03/01 03:05:53;;;;;;;;;;;;;;;;;;2209843;67;1164;-23
2023/03/01 03:08:24;;;;;;;;;;;;;;;;;;2208357;59;1295;-23
2023/03/01 03:10:54;;;;;;;;;;;;;;;;;;2209511;67;1207;-23
2023/03/01 03:13:28;;;;;;;;;;;;;;;;;;2208639;67;1548;-23
2023/03/01 03:15:58;;;;;;;;;;;;;;;;;;2206276;59;1609;-23
2023/03/01 03:18:28;;;;;;;;;;;;;;;;;;2209252;59;1915;-23
2023/03/01 03:20:58;;;;;;;;;;;;;;;;;;2208562;67;1306;-23
2023/03/01 03:23:29;;;;;;;;;;;;;;;;;;2208973;59;2125;-23
2023/03/01 03:26:00;;;;;;;;;;;;;;;;;;2208649;67;1424;-23
2023/03/01 03:28:34;;;;;;;;;;;;;;;;;;2208361;59;1505;-23
2023/03/01 03:31:05;;;;;;;;;;;;;;;;;;2208574;67;1256;-23
2023/03/01 03:33:36;;;;;;;;;;;;;;;;;;2208837;67;1246;-23
2023/03/01 03:36:06;;;;;;;;;;;;;;;;;;2209474;59;1672;-23
2023/03/01 03:38:37;;;;;;;;;;;;;;;;;;2209140;67;1992;-23
2023/03/01 03:41:08;;;;;;;;;;;;;;;;;;2209794;59;1747;-23
2023/03/01 03:43:39;;;;;;;;;;;;;;;;;;2210149;67;1796;-23
2023/03/01 03:46:10;;;;;;;;;;;;;;;;;;2205256;59;2114;-23
2023/03/01 03:48:42;;;;;;;;;;;;;;;;;;2205716;59;1940;-23
2023/03/01 03:51:14;;;;;;;;;;;;;;;;;;2208298;59;2383;-23
2023/03/01 03:53:44;;;;;;;;;;;;;;;;;;2209884;59;1657;-23
2023/03/01 03:56:15;;;;;;;;;;;;;;;;;;2210077;59;2232;-23
2023/03/01 03:58:45;;;;;;;;;;;;;;;;;;2209638;67;2243;-23
2023/03/01 04:01:15;;;;;;;;;;;;;;;;;;2208831;59;1459;-23
2023/03/01 04:03:46;;;;;;;;;;;;;;;;;;2205602;67;1376;-23
2023/03/01 04:06:16;;;;;;;;;;;;;;;;;;2209163;67;1256;-23
2023/03/01 04:08:50;;;;;;;;;;;;;;;;;;2209154;59;1787;-23
2023/03/01 04:11:26;;;;;;;;;;;;;;;;;;2209783;59;1309;-23
2023/03/01 04:13:58;;;;;;;;;;;;;;;;;;2203851;67;1254;-23
2023/03/01 04:16:28;;;;;;;;;;;;;;;;;;2209906;59;1587;-22
2023/03/01 04:19:00;;;;;;;;;;;;;;;;;;2209728;67;1986;-22
2023/03/01 04:21:30;;;;;;;;;;;;;;;;;;2209242;67;1351;-22
2023/03/01 04:24:02;;;;;;;;;;;;;;;;;;2209455;67;2076;-22
2023/03/01 04:26:33;;;;;;;;;;;;;;;;;;2209329;67;1389;-22
2023/03/01 04:29:04;;;;;;;;;;;;;;;;;;2209345;67;1386;-22
2023/03/01 04:31:34;;;;;;;;;;;;;;;;;;2209847;67;1207;-22
2023/03/01 04:34:04;;;;;;;;;;;;;;;;;;2208730;67;1314;-22
2023/03/01 04:36:35;;;;;;;;;;;;;;;;;;2209711;59;1310;-23
2023/03/01 04:39:11;;;;;;;;;;;;;;;;;;2209111;67;1928;-22
2023/03/01 04:41:43;;;;;;;;;;;;;;;;;;2210054;59;1487;-22
2023/03/01 04:44:13;;;;;;;;;;;;;;;;;;2209099;67;2003;-22
2023/03/01 04:46:43;;;;;;;;;;;;;;;;;;2205986;67;1133;-22
2023/03/01 04:49:14;;;;;;;;;;;;;;;;;;2209693;59;1380;-23
2023/03/01 04:51:44;;;;;;;;;;;;;;;;;;2206252;59;1636;-22
2023/03/01 04:54:14;;;;;;;;;;;;;;;;;;2208903;67;1487;-22
2023/03/01 04:56:44;;;;;;;;;;;;;;;;;;2210326;59;2174;-22
2023/03/01 04:59:14;;;;;;;;;;;;;;;;;;2209346;67;1921;-22
2023/03/01 05:01:45;;;;;;;;;;;;;;;;;;2210528;67;1234;-22
2023/03/01 05:04:15;;;;;;;;;;;;;;;;;;2209184;67;1442;-22
2023/03/01 05:06:45;;;;;;;;;;;;;;;;;;2209333;67;1747;-22
2023/03/01 05:09:15;;;;;;;;;;;;;;;;;;2210058;59;1296;-22
2023/03/01 05:11:46;;;;;;;;;;;;;;;;;;2206301;67;1384;-22
2023/03/01 05:14:16;;;;;;;;;;;;;;;;;;2209070;59;1317;-22
2023/03/01 05:16:46;;;;;;;;;;;;;;;;;;2209362;67;1712;-22
2023/03/01 05:19:22;;;;;;;;;;;;;;;;;;2205555;67;1981;-22
2023/03/01 05:22:01;;;;;;;;;;;;;;;;;;2209161;67;1303;-23
2023/03/01 05:24:34;;;;;;;;;;;;;;;;;;2209192;67;1681;-22
2023/03/01 05:27:06;;;;;;;;;;;;;;;;;;2208906;67;1423;-22
2023/03/01 05:29:36;;;;;;;;;;;;;;;;;;2209088;67;1702;-22
2023/03/01 05:32:06;;;;;;;;;;;;;;;;;;2209579;67;1392;-22
2023/03/01 05:34:36;;;;;;;;;;;;;;;;;;2210629;59;1338;-22
2023/03/01 05:37:07;;;;;;;;;;;;;;;;;;2211198;67;1304;-22
2023/03/01 05:39:37;;;;;;;;;;;;;;;;;;2210979;67;1926;-22
2023/03/01 05:42:11;;;;;;;;;;;;;;;;;;2210085;59;1325;-22
2023/03/01 05:44:42;;;;;;;;;;;;;;;;;;2210653;67;1122;-22
2023/03/01 05:47:12;;;;;;;;;;;;;;;;;;2211353;59;1554;-22
2023/03/01 05:49:42;;;;;;;;;;;;;;;;;;2210561;59;1324;-22
2023/03/01 05:52:12;;;;;;;;;;;;;;;;;;2210453;59;1664;-22
2023/03/01 05:54:42;;;;;;;;;;;;;;;;;;2209064;67;1352;-23
2023/03/01 05:57:13;;;;;;;;;;;;;;;;;;2209285;59;2312;-22
2023/03/01 05:59:43;;;;;;;;;;;;;;;;;;2209064;67;2011;-22
2023/03/01 06:02:13;;;;;;;;;;;;;;;;;;2208441;67;1180;-22
2023/03/01 06:04:43;;;;;;;;;;;;;;;;;;2209431;67;1456;-22
2023/03/01 06:07:13;;;;;;;;;;;;;;;;;;2209143;67;1792;-22
2023/03/01 06:09:44;;;;;;;;;;;;;;;;;;2209261;59;1262;-22
2023/03/01 06:12:14;;;;;;;;;;;;;;;;;;2209277;67;1133;-22
2023/03/01 06:14:46;;;;;;;;;;;;;;;;;;2209453;59;1891;-22
2023/03/01 06:17:16;;;;;;;;;;;;;;;;;;2209610;67;1691;-22
2023/03/01 06:19:46;;;;;;;;;;;;;;;;;;2209000;67;1920;-22
2023/03/01 06:22:17;;;;;;;;;;;;;;;;;;2208527;67;1736;-22
2023/03/01 06:24:47;;;;;;;;;;;;;;;;;;2209654;67;1383;-22
2023/03/01 06:27:17;;;;;;;;;;;;;;;;;;2208263;67;1796;-22
2023/03/01 06:29:48;;;;;;;;;;;;;;;;;;2209668;67;1228;-22
2023/03/01 06:32:19;;;;;;;;;;;;;;;;;;2209239;67;1756;-22
2023/03/01 06:34:49;;;;;;;;;;;;;;;;;;2209614;59;1289;-22
2023/03/01 06:37:19;;;;;;;;;;;;;;;;;;2209147;67;1712;-22
2023/03/01 06:39:50;;;;;;;;;;;;;;;;;;2209001;67;2005;-23
2023/03/01 06:42:20;;;;;;;;;;;;;;;;;;2209912;59;1292;-22
2023/03/01 06:44:50;;;;;;;;;;;;;;;;;;2209859;67;1201;-22
2023/03/01 06:47:20;;;;;;;;;;;;;;;;;;2209984;59;2045;-22
2023/03/01 06:49:50;;;;;;;;;;;;;;;;;;2209337;59;1470;-22
2023/03/01 06:52:21;;;;;;;;;;;;;;;;;;2209060;59;2295;-22
2023/03/01 06:54:51;;;;;;;;;;;;;;;;;;2208449;67;1239;-22
2023/03/01 06:57:22;;;;;;;;;;;;;;;;;;2208751;59;2327;-22
2023/03/01 06:59:52;;;;;;;;;;;;;;;;;;2208657;67;1934;-22
2023/03/01 07:02:22;;;;;;;;;;;;;;;;;;2208221;67;1893;-22
2023/03/01 07:04:53;;;;;;;;;;;;;;;;;;2209809;67;1279;-22
2023/03/01 07:07:23;;;;;;;;;;;;;;;;;;2206294;67;1713;-23
2023/03/01 07:09:54;;;;;;;;;;;;;;;;;;2209510;59;1653;-22
2023/03/01 07:12:24;;;;;;;;;;;;;;;;;;2208782;67;1393;-22
2023/03/01 07:14:54;;;;;;;;;;;;;;;;;;2209467;59;1297;-22
2023/03/01 07:17:24;;;;;;;;;;;;;;;;;;2209112;59;1654;-23
2023/03/01 07:19:54;;;;;;;;;;;;;;;;;;2206486;67;1995;-22
2023/03/01 07:22:25;;;;;;;;;;;;;;;;;;2209645;67;1129;-22
2023/03/01 07:24:55;;;;;;;;;;;;;;;;;;2209101;67;1431;-22
2023/03/01 07:27:25;;;;;;;;;;;;;;;;;;2209317;67;1127;-22
2023/03/01 07:29:55;;;;;;;;;;;;;;;;;;2209101;67;1230;-22
2023/03/01 07:32:25;;;;;;;;;;;;;;;;;;2209651;67;2203;-22
2023/03/01 07:34:56;;;;;;;;;;;;;;;;;;2209546;59;1277;-23
2023/03/01 07:37:26;;;;;;;;;;;;;;;;;;2209240;67;1208;-23
2023/03/01 07:39:57;;;;;;;;;;;;;;;;;;2209491;59;1987;-22
2023/03/01 07:42:27;;;;;;;;;;;;;;;;;;2209816;59;1383;-22
2023/03/01 07:44:57;;;;;;;;;;;;;;;;;;2209912;67;1257;-22
2023/03/01 07:47:28;;;;;;;;;;;;;;;;;;2206950;67;1991;-22
2023/03/01 07:49:58;;;;;;;;;;;;;;;;;;2210189;59;1300;-22
2023/03/01 07:52:28;;;;;;;;;;;;;;;;;;2210686;59;1596;-22
2023/03/01 07:54:58;;;;;;;;;;;;;;;;;;2208985;59;2349;-22
2023/03/01 07:57:29;;;;;;;;;;;;;;;;;;2209161;59;2405;-23
2023/03/01 07:59:59;;;;;;;;;;;;;;;;;;2208302;59;1926;-23
2023/03/01 08:02:29;;;;;;;;;;;;;;;;;;2209229;67;2390;-22
2023/03/01 08:04:59;;;;;;;;;;;;;;;;;;2208444;67;2112;-22
2023/03/01 08:07:29;;;;;;;;;;;;;;;;;;2208360;67;2226;-22
2023/03/01 08:10:00;;;;;;;;;;;;;;;;;;2207817;59;2191;-22
2023/03/01 08:12:30;;;;;;;;;;;;;;;;;;2208174;64;2270;-22
2023/03/01 08:15:00;;;;;;;;;;;;;;;;;;2208704;59;1676;-22
2023/03/01 08:17:30;;;;;;;;;;;;;;;;;;2208189;59;1732;-23
2023/03/01 08:20:00;;;;;;;;;;;;;;;;;;2208249;67;2889;-23
2023/03/01 08:22:31;;;;;;;;;;;;;;;;;;2207517;59;2291;-22
2023/03/01 08:25:01;;;;;;;;;;;;;;;;;;2208551;67;1604;-22
2023/03/01 08:27:31;;;;;;;;;;;;;;;;;;2206411;59;2281;-22
2023/03/01 08:30:01;;;;;;;;;;;;;;;;;;2206766;59;2197;-22
2023/03/01 08:32:35;;;;;;;;;;;;;;;;;;2208959;59;2478;-22
2023/03/01 08:35:05;;;;;;;;;;;;;;;;;;2208712;59;2221;-22
2023/03/01 08:37:36;;;;;;;;;;;;;;;;;;2208866;59;2284;-22
2023/03/01 08:40:07;;;;;;;;;;;;;;;;;;2205670;67;2169;-22
2023/03/01 08:42:37;;;;;;;;;;;;;;;;;;2209694;59;2217;-22
2023/03/01 08:45:07;;;;;;;;;;;;;;;;;;2209350;59;2197;-22
2023/03/01 08:47:38;;;;;;;;;;;;;;;;;;2208807;59;2160;-22
2023/03/01 08:50:08;;;;;;;;;;;;;;;;;;2210108;59;1274;-22
2023/03/01 08:52:39;;;;;;;;;;;;;;;;;;2205566;59;2512;-22
2023/03/01 08:55:09;;;;;;;;;;;;;;;;;;2209007;59;2161;-22
2023/03/01 08:57:39;;;;;;;;;;;;;;;;;;2209177;59;2261;-22
2023/03/01 09:00:11;;;;;;;;;;;;;;;;;;2206544;67;1939;-23
2023/03/01 09:02:41;;;;;;;;;;;;;;;;;;2209210;67;1776;-23
2023/03/01 09:05:11;;;;;;;;;;;;;;;;;;2200292;59;2700;-22
2023/03/01 09:07:41;;;;;;;;;;;;;;;;;;2205378;67;2107;-22
2023/03/01 09:10:11;;;;;;;;;;;;;;;;;;2208470;59;2004;-22
2023/03/01 09:12:42;;;;;;;;;;;;;;;;;;2208791;67;2605;-22
2023/03/01 09:15:12;;;;;;;;;;;;;;;;;;2208378;59;2336;-22
2023/03/01 09:17:43;;;;;;;;;;;;;;;;;;2209532;59;1772;-22
2023/03/01 09:20:13;;;;;;;;;;;;;;;;;;2210225;67;1904;-22
2023/03/01 09:22:44;;;;;;;;;;;;;;;;;;2210340;67;1720;-22
2023/03/01 09:25:14;;;;;;;;;;;;;;;;;;2209037;59;2466;-23
2023/03/01 09:27:44;;;;;;;;;;;;;;;;;;2209055;59;2643;-22
2023/03/01 09:30:14;;;;;;;;;;;;;;;;;;2208387;67;2721;-22
2023/03/01 09:32:45;;;;;;;;;;;;;;;;;;2209716;67;2012;-22
2023/03/01 09:35:15;;;;;;;;;;;;;;;;;;2207445;59;2100;-22
2023/03/01 09:37:45;;;;;;;;;;;;;;;;;;2206565;59;2507;-22
2023/03/01 09:40:17;;;;;;;;;;;;;;;;;;2207986;67;1991;-23
2023/03/01 09:43:05;;;;;;;;;;;;;;;;;;2208315;59;1704;-22
2023/03/01 09:45:40;;;;;;;;;;;;;;;;;;2208462;67;1810;-23
2023/03/01 09:48:15;;;;;;;;;;;;;;;;;;2206342;59;2750;-22
2023/03/01 09:50:48;;;;;;;;;;;;;;;;;;2208221;59;2602;-22
2023/03/01 09:53:21;;;;;;;;;;;;;;;;;;2208292;59;2216;-22
2023/03/01 09:55:55;;;;;;;;;;;;;;;;;;2208208;59;2163;-22
2023/03/01 09:58:28;;;;;;;;;;;;;;;;;;2208632;67;2399;-22
2023/03/01 10:01:05;;;;;;;;;;;;;;;;;;2203743;59;2202;-22
2023/03/01 10:03:48;;;;;;;;;;;;;;;;;;2207731;59;2125;-22
2023/03/01 10:06:20;;;;;;;;;;;;;;;;;;2208163;67;2601;-22
2023/03/01 10:08:54;;;;;;;;;;;;;;;;;;2208081;59;2104;-22
2023/03/01 10:11:30;;;;;;;;;;;;;;;;;;2207843;59;1450;-22
2023/03/01 10:14:03;;;;;;;;;;;;;;;;;;2209064;59;1313;-22
2023/03/01 10:16:40;;;;;;;;;;;;;;;;;;2209853;59;1666;-22
2023/03/01 10:19:13;;;;;;;;;;;;;;;;;;2208992;67;2227;-22
2023/03/01 10:21:45;;;;;;;;;;;;;;;;;;2208923;67;1154;-22
2023/03/01 10:24:18;;;;;;;;;;;;;;;;;;2209258;67;1785;-22
2023/03/01 10:26:56;;;;;;;;;;;;;;;;;;2208459;67;1183;-22
2023/03/01 10:29:31;;;;;;;;;;;;;;;;;;2205045;67;1283;-22
2023/03/01 10:32:03;;;;;;;;;;;;;;;;;;2205822;67;1261;-22
2023/03/01 10:34:35;;;;;;;;;;;;;;;;;;2209020;67;1729;-22
2023/03/01 10:37:18;;;;;;;;;;;;;;;;;;2208622;67;1226;-22
2023/03/01 10:39:55;;;;;;;;;;;;;;;;;;2208598;67;1931;-22
2023/03/01 10:42:33;;;;;;;;;;;;;;;;;;2208937;59;1223;-22
2023/03/01 10:45:22;;;;;;;;;;;;;;;;;;2203757;59;1832;-22
2023/03/01 10:48:04;;;;;;;;;;;;;;;;;;2207402;59;2648;-22
2023/03/01 10:50:36;;;;;;;;;;;;;;;;;;2208128;59;2256;-22
2023/03/01 10:53:21;;;;;;;;;;;;;;;;;;2205414;59;1582;-22
2023/03/01 10:56:06;;;;;;;;;;;;;;;;;;2209478;59;2033;-22
2023/03/01 10:58:37;;;;;;;;;;;;;;;;;;2208434;59;2020;-22
2023/03/01 11:01:07;;;;;;;;;;;;;;;;;;2208583;59;2207;-22
2023/03/01 11:03:38;;;;;;;;;;;;;;;;;;2205381;67;1208;-22
2023/03/01 11:06:29;;;;;;;;;;;;;;;;;;2209202;67;1284;-22
2023/03/01 11:09:19;;;;;;;;;;;;;;;;;;2209482;59;2150;-22
2023/03/01 11:11:54;;;;;;;;;;;;;;;;;;2208999;67;1224;-22
2023/03/01 11:14:25;;;;;;;;;;;;;;;;;;2208341;59;1919;-22
2023/03/01 11:17:15;;;;;;;;;;;;;;;;;;2208375;59;1574;-22
2023/03/01 11:20:00;;;;;;;;;;;;;;;;;;2208016;67;1932;-22
2023/03/01 11:22:32;;;;;;;;;;;;;;;;;;2209296;67;1028;-22
2023/03/01 11:25:03;;;;;;;;;;;;;;;;;;2208684;67;1285;-22
2023/03/01 11:27:39;;;;;;;;;;;;;;;;;;2202402;67;1341;-22
2023/03/01 11:30:20;;;;;;;;;;;;;;;;;;2208590;67;1492;-22
2023/03/01 11:33:00;;;;;;;;;;;;;;;;;;2205617;67;1646;-22
2023/03/01 11:35:33;;;;;;;;;;;;;;;;;;2204634;67;1914;-22
2023/03/01 11:38:09;;;;;;;;;;;;;;;;;;2208751;67;1334;-22
2023/03/01 11:40:41;;;;;;;;;;;;;;;;;;2207847;59;1936;-22
2023/03/01 11:43:18;;;;;;;;;;;;;;;;;;2209544;67;1168;-23
2023/03/01 11:45:50;;;;;;;;;;;;;;;;;;2209046;67;1281;-22
2023/03/01 11:48:44;;;;;;;;;;;;;;;;;;2208915;59;2143;-22
2023/03/01 11:51:22;;;;;;;;;;;;;;;;;;2207540;59;2382;-22
2023/03/01 11:54:06;;;;;;;;;;;;;;;;;;2208238;59;1703;-22
2023/03/01 11:56:59;;;;;;;;;;;;;;;;;;2205883;59;1897;-22
2023/03/01 11:59:38;;;;;;;;;;;;;;;;;;2206764;67;2027;-22
2023/03/01 12:02:29;;;;;;;;;;;;;;;;;;2210137;67;1595;-22
2023/03/01 12:05:25;;;;;;;;;;;;;;;;;;2202941;59;2333;-22
2023/03/01 12:08:08;;;;;;;;;;;;;;;;;;2203966;59;2236;-22
2023/03/01 12:10:55;;;;;;;;;;;;;;;;;;2209422;59;2307;-23
2023/03/01 12:13:35;;;;;;;;;;;;;;;;;;2206844;59;2462;-23
2023/03/01 12:16:09;;;;;;;;;;;;;;;;;;2204284;59;2042;-23
2023/03/01 12:18:49;;;;;;;;;;;;;;;;;;2209207;67;2032;-23
2023/03/01 12:21:39;;;;;;;;;;;;;;;;;;2209549;59;2237;-23
2023/03/01 12:24:27;;;;;;;;;;;;;;;;;;2209773;67;2255;-23
2023/03/01 12:27:00;;;;;;;;;;;;;;;;;;2208081;59;2496;-23
2023/03/01 12:29:55;;;;;;;;;;;;;;;;;;2209017;59;2247;-23
2023/03/01 12:32:44;;;;;;;;;;;;;;;;;;2209142;67;2224;-23
2023/03/01 12:35:20;;;;;;;;;;;;;;;;;;2209288;59;2100;-23
2023/03/01 12:38:06;;;;;;;;;;;;;;;;;;2208418;59;2196;-23
2023/03/01 12:40:51;;;;;;;;;;;;;;;;;;2209095;59;1947;-23
2023/03/01 12:43:47;;;;;;;;;;;;;;;;;;2209778;59;1411;-23
2023/03/01 12:46:30;;;;;;;;;;;;;;;;;;2205939;59;2285;-23
2023/03/01 12:49:17;;;;;;;;;;;;;;;;;;2209649;59;1411;-23
2023/03/01 12:52:10;;;;;;;;;;;;;;;;;;2207824;59;2424;-23
2023/03/01 12:54:41;;;;;;;;;;;;;;;;;;2206900;67;1632;-23
2023/03/01 12:57:14;;;;;;;;;;;;;;;;;;2209215;59;2673;-23
2023/03/01 13:00:00;;;;;;;;;;;;;;;;;;2205929;67;1932;-23
2023/03/01 13:02:35;;;;;;;;;;;;;;;;;;2204249;59;2521;-23
2023/03/01 13:05:15;;;;;;;;;;;;;;;;;;2207841;59;2758;-23
2023/03/01 13:08:21;;;;;;;;;;;;;;;;;;2207264;59;3249;-23
2023/03/01 13:10:56;;;;;;;;;;;;;;;;;;2198943;59;2171;-23
2023/03/01 13:13:28;;;;;;;;;;;;;;;;;;2205463;59;1703;-24
2023/03/01 13:16:19;;;;;;;;;;;;;;;;;;2205660;59;2060;-33
2023/03/01 13:18:50;;;;;;;;;;;;;;;;;;2207563;59;1935;-24
2023/03/01 13:21:30;;;;;;;;;;;;;;;;;;2211941;59;1724;-28
2023/03/01 13:24:01;;;;;;;;;;;;;;;;;;2205818;59;1665;-23
2023/03/01 13:26:52;;;;;;;;;;;;;;;;;;2211248;59;1234;-23
2023/03/01 13:29:27;;;;;;;;;;;;;;;;;;2206547;59;2015;-23
2023/03/01 13:31:59;;;;;;;;;;;;;;;;;;2208739;59;1458;-23
2023/03/01 13:34:40;;;;;;;;;;;;;;;;;;2207596;59;1315;-23
2023/03/01 13:37:18;;;;;;;;;;;;;;;;;;2208769;67;1645;-23
2023/03/01 13:39:50;;;;;;;;;;;;;;;;;;2206083;59;2291;-24
2023/03/01 13:42:29;;;;;;;;;;;;;;;;;;2213671;59;2068;-24
2023/03/01 13:45:00;;;;;;;;;;;;;;;;;;2212785;59;2134;-23
2023/03/01 13:47:39;;;;;;;;;;;;;;;;;;2209785;59;2094;-23
2023/03/01 13:50:17;;;;;;;;;;;;;;;;;;2211115;59;2371;-24
2023/03/01 13:52:52;;;;;;;;;;;;;;;;;;2212496;59;2778;-24
2023/03/01 13:55:38;;;;;;;;;;;;;;;;;;2208054;59;1688;-24
2023/03/01 13:58:35;;;;;;;;;;;;;;;;;;2212286;59;2102;-23
2023/03/01 14:01:08;;;;;;;;;;;;;;;;;;2203760;59;24345;-24
2023/03/01 14:03:42;;;;;;;;;;;;;;;;;;2208986;59;2851;-24
2023/03/01 14:06:15;;;;;;;;;;;;;;;;;;2211340;59;2809;-24
2023/03/01 14:08:47;;;;;;;;;;;;;;;;;;2206399;59;2874;-24
2023/03/01 14:11:51;;;;;;;;;;;;;;;;;;2207507;59;2394;-23
2023/03/01 14:14:31;;;;;;;;;;;;;;;;;;2204756;59;2921;-23
2023/03/01 14:17:11;;;;;;;;;;;;;;;;;;2210150;59;2265;-23
2023/03/01 14:19:44;;;;;;;;;;;;;;;;;;2208531;59;2801;-23
2023/03/01 14:22:22;;;;;;;;;;;;;;;;;;2207054;59;2911;-23
2023/03/01 14:25:00;;;;;;;;;;;;;;;;;;2210216;59;2319;-23
2023/03/01 14:27:41;;;;;;;;;;;;;;;;;;2217819;53;4397;-24
2023/03/01 14:30:19;;;;;;;;;;;;;;;;;;2214751;59;3026;-23
2023/03/01 14:33:02;;;;;;;;;;;;;;;;;;2211875;59;2430;-23
2023/03/01 14:35:34;;;;;;;;;;;;;;;;;;2214917;59;3111;-23
2023/03/01 14:38:05;;;;;;;;;;;;;;;;;;2212198;53;4843;-24
2023/03/01 14:40:37;;;;;;;;;;;;;;;;;;2214393;59;3160;-23
2023/03/01 14:43:09;;;;;;;;;;;;;;;;;;2213229;59;3349;-23
2023/03/01 14:45:46;;;;;;;;;;;;;;;;;;2212673;59;2930;-24
2023/03/01 14:48:17;;;;;;;;;;;;;;;;;;2213414;59;2587;-23
2023/03/01 14:50:48;;;;;;;;;;;;;;;;;;2212456;59;2730;-24
2023/03/01 14:53:26;;;;;;;;;;;;;;;;;;2215857;59;3094;-24
2023/03/01 14:56:03;;;;;;;;;;;;;;;;;;2213382;59;2677;-30
2023/03/01 14:58:34;;;;;;;;;;;;;;;;;;2213055;59;3290;-24
2023/03/01 15:01:05;;;;;;;;;;;;;;;;;;2214985;59;2262;-24
2023/03/01 15:03:37;;;;;;;;;;;;;;;;;;2214695;66;1378;-24
2023/03/01 15:06:08;;;;;;;;;;;;;;;;;;2214064;66;1582;-24
2023/03/01 15:08:41;;;;;;;;;;;;;;;;;;2214213;59;2082;-24
2023/03/01 15:11:26;;;;;;;;;;;;;;;;;;2213650;66;2328;-24
2023/03/01 15:13:57;;;;;;;;;;;;;;;;;;2213305;66;1690;-23
2023/03/01 15:16:32;;;;;;;;;;;;;;;;;;2215965;58;2232;-23
2023/03/01 15:19:06;;;;;;;;;;;;;;;;;;2212815;66;1941;-23
2023/03/01 15:21:38;;;;;;;;;;;;;;;;;;2213059;66;1619;-23
2023/03/01 15:24:19;;;;;;;;;;;;;;;;;;2214431;59;2007;-22
2023/03/01 15:26:57;;;;;;;;;;;;;;;;;;2214159;66;1700;-24
2023/03/01 15:29:33;;;;;;;;;;;;;;;;;;2216582;59;2191;-24
2023/03/01 15:32:04;;;;;;;;;;;;;;;;;;2214141;59;2016;-23
2023/03/01 15:34:37;;;;;;;;;;;;;;;;;;2213886;66;2408;-23
2023/03/01 15:37:27;;;;;;;;;;;;;;;;;;2214516;59;2204;-23
2023/03/01 15:39:57;;;;;;;;;;;;;;;;;;2212258;59;2214;-23
2023/03/01 15:42:28;;;;;;;;;;;;;;;;;;2213137;59;2373;-23
2023/03/01 15:45:30;;;;;;;;;;;;;;;;;;2214355;66;1664;-23
2023/03/01 15:48:05;;;;;;;;;;;;;;;;;;2199191;59;2121;-23
2023/03/01 15:50:39;;;;;;;;;;;;;;;;;;2212765;66;1984;-23
2023/03/01 15:53:15;;;;;;;;;;;;;;;;;;2208909;59;2844;-23
2023/03/01 15:55:48;;;;;;;;;;;;;;;;;;2211147;59;2149;-23
2023/03/01 15:58:24;;;;;;;;;;;;;;;;;;2213874;59;2090;-23
2023/03/01 16:00:58;;;;;;;;;;;;;;;;;;2213018;59;3121;-22
2023/03/01 16:03:29;;;;;;;;;;;;;;;;;;2213197;59;2080;-23
2023/03/01 16:06:00;;;;;;;;;;;;;;;;;;2213743;59;1689;-24
2023/03/01 16:08:31;;;;;;;;;;;;;;;;;;2213768;59;2152;-23
2023/03/01 16:11:04;;;;;;;;;;;;;;;;;;2214724;59;2120;-24
2023/03/01 16:13:35;;;;;;;;;;;;;;;;;;2215903;66;1826;-23
2023/03/01 16:16:05;;;;;;;;;;;;;;;;;;2215434;59;2331;-23
2023/03/01 16:18:36;;;;;;;;;;;;;;;;;;2214642;66;1915;-24
2023/03/01 16:21:06;;;;;;;;;;;;;;;;;;2214735;59;1806;-23
2023/03/01 16:23:37;;;;;;;;;;;;;;;;;;2216747;66;1859;-24
2023/03/01 16:26:08;;;;;;;;;;;;;;;;;;2213716;59;1850;-23
2023/03/01 16:28:39;;;;;;;;;;;;;;;;;;2213270;59;1896;-24
2023/03/01 16:31:10;;;;;;;;;;;;;;;;;;2210644;59;2486;-24
2023/03/01 16:33:41;;;;;;;;;;;;;;;;;;2213114;66;1576;-22
2023/03/01 16:36:12;;;;;;;;;;;;;;;;;;2212650;59;2270;-23
2023/03/01 16:38:42;;;;;;;;;;;;;;;;;;2212687;59;2009;-23
2023/03/01 16:41:13;;;;;;;;;;;;;;;;;;2215446;59;2170;-24
2023/03/01 16:43:46;;;;;;;;;;;;;;;;;;2213659;66;1222;-23
2023/03/01 16:46:18;;;;;;;;;;;;;;;;;;2211097;59;2504;-23
2023/03/01 16:48:49;;;;;;;;;;;;;;;;;;2214240;59;2210;-22
2023/03/01 16:51:19;;;;;;;;;;;;;;;;;;2212238;59;2171;-23
2023/03/01 16:53:50;;;;;;;;;;;;;;;;;;2214004;66;1422;-23
2023/03/01 16:56:20;;;;;;;;;;;;;;;;;;2214869;59;2007;-22
2023/03/01 16:58:51;;;;;;;;;;;;;;;;;;2213568;66;1951;-23
2023/03/01 17:01:25;;;;;;;;;;;;;;;;;;2214193;59;2069;-23
2023/03/01 17:03:56;;;;;;;;;;;;;;;;;;2212120;59;1971;-24
2023/03/01 17:06:26;;;;;;;;;;;;;;;;;;2218791;53;1897;-19
2023/03/01 17:08:57;;;;;;;;;;;;;;;;;;2214979;66;1218;-18
2023/03/01 17:11:27;;;;;;;;;;;;;;;;;;2214219;58;2283;-18
2023/03/01 17:13:57;;;;;;;;;;;;;;;;;;2216136;59;2290;-18
2023/03/01 17:16:27;;;;;;;;;;;;;;;;;;2214325;66;1476;-18
2023/03/01 17:18:58;;;;;;;;;;;;;;;;;;2215598;66;1940;-18
2023/03/01 17:21:28;;;;;;;;;;;;;;;;;;2212932;67;1651;-18
2023/03/01 17:23:58;;;;;;;;;;;;;;;;;;2212913;59;1826;-18
2023/03/01 17:26:29;;;;;;;;;;;;;;;;;;2211726;67;1635;-18
2023/03/01 17:28:59;;;;;;;;;;;;;;;;;;2212718;67;1716;-18
2023/03/01 17:31:31;;;;;;;;;;;;;;;;;;2213188;67;1118;-19
2023/03/01 17:34:01;;;;;;;;;;;;;;;;;;2212044;59;1918;-18
2023/03/01 17:36:33;;;;;;;;;;;;;;;;;;2212447;59;1755;-18
2023/03/01 17:39:03;;;;;;;;;;;;;;;;;;2209732;67;1935;-18
2023/03/01 17:41:33;;;;;;;;;;;;;;;;;;2212225;67;1285;-18
2023/03/01 17:44:04;;;;;;;;;;;;;;;;;;2211992;67;2279;-18
2023/03/01 17:46:34;;;;;;;;;;;;;;;;;;2210949;59;2085;-18